Time;durP1;ratioP1;P1;durP2;ratioP2;P2;SDS_P1;SDS_P2;PMS_P1;PMS_P2;Temp;Humidity;BMP_temperature;BMP_pressure;BME280_temperature;BME280_humidity;BME280_pressure;Samples;Min_cycle;Max_cycle;Signal;HPM_P1;HPM_P2
2022/05/17 00:01:24;;;;;;;14.32;8.40;;;20.90;58.90;;;;;;5092294;28;20080;-75
2022/05/17 00:03:50;;;;;;;15.05;7.78;;;20.90;58.60;;;;;;5074565;28;20024;-75
2022/05/17 00:06:16;;;;;;;11.70;7.38;;;20.90;59.40;;;;;;5074238;28;20042;-71
2022/05/17 00:08:42;;;;;;;10.25;5.88;;;20.90;59.50;;;;;;5074694;28;20404;-72
2022/05/17 00:11:13;;;;;;;;;;;20.70;59.30;;;;;;5073736;28;20024;-72
2022/05/17 00:13:39;;;;;;;9.98;6.50;;;20.50;58.60;;;;;;5075081;28;19946;-72
2022/05/17 00:16:05;;;;;;;;;;;20.50;59.50;;;;;;5078079;28;20032;-75
2022/05/17 00:18:49;;;;;;;11.30;7.07;;;20.50;58.60;;;;;;5096288;28;20392;-72
2022/05/17 00:21:15;;;;;;;10.07;6.20;;;20.50;59.40;;;;;;5078293;28;20028;-72
2022/05/17 00:23:42;;;;;;;12.02;6.80;;;20.40;59.50;;;;;;5078243;28;20047;-72
2022/05/17 00:26:09;;;;;;;14.02;7.60;;;20.40;59.60;;;;;;5077096;28;20434;-72
2022/05/17 00:28:36;;;;;;;10.25;7.10;;;20.40;59.70;;;;;;5078197;28;20040;-75
2022/05/17 00:31:15;;;;;;;9.48;6.28;;;20.40;59.80;;;;;;5078013;28;20030;-71
2022/05/17 00:33:41;;;;;;;11.02;7.63;;;20.40;60.00;;;;;;5061323;28;20032;-76
2022/05/17 00:36:08;;;;;;;;;;;20.30;60.10;;;;;;5078318;28;20481;-74
2022/05/17 00:38:34;;;;;;;13.88;6.82;;;20.30;58.60;;;;;;5078189;28;20373;-72
2022/05/17 00:41:01;;;;;;;12.00;6.32;;;20.30;59.80;;;;;;5076883;28;20032;-72
2022/05/17 00:47:11;;;;;;;12.63;6.90;;;20.30;60.50;;;;;;5075443;28;20043;-75
2022/05/17 00:50:02;;;;;;;11.50;6.70;;;20.30;60.00;;;;;;5041084;28;20452;-75
2022/05/17 00:53:09;;;;;;;11.82;7.20;;;20.20;60.10;;;;;;5057628;28;20474;-73
2022/05/17 00:56:01;;;;;;;19.23;7.95;;;20.20;59.90;;;;;;5057388;28;20033;-72
2022/05/17 00:58:53;;;;;;;12.50;7.13;;;20.20;60.20;;;;;;5095265;28;20071;-75
2022/05/17 01:01:23;;;;;;;10.38;6.90;;;20.10;60.40;;;;;;5077344;28;20028;-71
2022/05/17 01:04:28;;;;;;;10.82;6.90;;;20.10;60.70;;;;;;5077561;28;20083;-75
2022/05/17 01:07:03;;;;;;;10.43;6.93;;;20.10;61.00;;;;;;5095458;28;20032;-72
2022/05/17 01:09:29;;;;;;;11.52;6.97;;;20.10;61.10;;;;;;5077556;28;20032;-72
2022/05/17 01:11:55;;;;;;;14.07;7.30;;;20.00;61.10;;;;;;5076309;28;20473;-72
2022/05/17 01:17:06;;;;;;;12.20;6.75;;;19.90;60.10;;;;;;5079867;28;19945;-74
2022/05/17 01:19:33;;;;;;;;;;;19.90;61.00;;;;;;5077940;28;20546;-74
2022/05/17 01:21:59;;;;;;;10.80;6.77;;;19.70;60.10;;;;;;5076979;28;19916;-71
2022/05/17 01:24:28;;;;;;;;;;;19.80;61.00;;;;;;5077638;28;20524;-74
2022/05/17 01:27:04;;;;;;;11.25;6.82;;;19.80;60.20;;;;;;5075783;28;19916;-74
2022/05/17 01:29:39;;;;;;;10.68;6.43;;;19.70;61.20;;;;;;5060244;28;20089;-74
2022/05/17 01:32:08;;;;;;;10.88;6.65;;;19.60;61.20;;;;;;5076735;28;20054;-74
2022/05/17 01:34:35;;;;;;;10.75;6.47;;;19.70;61.50;;;;;;5077127;28;20443;-71
2022/05/17 01:37:04;;;;;;;11.50;6.85;;;19.60;61.20;;;;;;5076601;28;20477;-77
2022/05/17 01:39:31;;;;;;;11.98;6.65;;;19.60;61.60;;;;;;5077132;28;20040;-74
2022/05/17 01:42:00;;;;;;;15.48;7.20;;;19.60;61.60;;;;;;5075887;28;20063;-76
2022/05/17 01:44:35;;;;;;;10.55;6.97;;;19.60;61.70;;;;;;5077301;28;20036;-71
2022/05/17 01:47:01;;;;;;;13.35;7.07;;;19.60;61.80;;;;;;5076386;28;20036;-71
2022/05/17 01:49:27;;;;;;;;;;;19.60;61.90;;;;;;5077245;28;20454;-72
2022/05/17 01:51:53;;;;;;;12.27;6.60;;;19.60;60.90;;;;;;5094667;28;19916;-71
2022/05/17 01:54:19;;;;;;;;;;;19.50;61.50;;;;;;5077076;28;20436;-74
2022/05/17 01:56:45;;;;;;;11.02;7.07;;;19.50;60.80;;;;;;5093508;28;19945;-71
2022/05/17 01:59:12;;;;;;;9.80;6.10;;;19.50;61.70;;;;;;5076639;28;20431;-74
2022/05/17 02:01:39;;;;;;;9.95;6.47;;;19.50;61.80;;;;;;5076359;28;20115;-71
2022/05/17 02:04:06;;;;;;;10.95;6.85;;;19.40;62.00;;;;;;5094486;28;20107;-77
2022/05/17 02:06:32;;;;;;;10.10;5.97;;;19.40;62.10;;;;;;5094207;28;20377;-71
2022/05/17 02:08:58;;;;;;;10.75;6.47;;;19.40;62.30;;;;;;5094802;28;20059;-71
2022/05/17 02:11:25;;;;;;;10.05;6.20;;;19.40;62.30;;;;;;5075830;28;20039;-75
2022/05/17 02:13:50;;;;;;;;;;;19.50;62.10;;;;;;5094064;28;20094;-74
2022/05/17 02:16:17;;;;;;;9.60;5.85;;;19.40;61.10;;;;;;5075856;28;19915;-74
2022/05/17 02:18:43;;;;;;;12.27;6.35;;;19.50;61.70;;;;;;5094045;28;20040;-73
2022/05/17 02:21:09;;;;;;;11.18;6.95;;;19.50;61.80;;;;;;5059108;28;20039;-74
2022/05/17 02:23:35;;;;;;;;;;;19.50;61.70;;;;;;5094747;28;20028;-74
2022/05/17 02:26:01;;;;;;;12.90;6.72;;;19.60;60.80;;;;;;5093452;28;19962;-71
2022/05/17 02:28:27;;;;;;;;;;;19.50;61.50;;;;;;5055592;28;20032;-71
2022/05/17 02:30:53;;;;;;;10.55;6.15;;;19.50;60.70;;;;;;5055661;28;19912;-76
2022/05/17 02:33:19;;;;;;;10.38;5.60;;;19.50;61.40;;;;;;5055910;28;20051;-74
2022/05/17 02:35:45;;;;;;;9.77;5.55;;;19.50;61.70;;;;;;5073408;28;20037;-71
2022/05/17 02:38:11;;;;;;;;;;;19.60;61.70;;;;;;5073845;28;20034;-74
2022/05/17 02:40:38;;;;;;;8.75;5.75;;;19.60;61.00;;;;;;5055367;28;20082;-71
2022/05/17 02:43:13;;;;;;;13.48;6.30;;;19.50;61.50;;;;;;5064804;28;20423;-70
2022/05/17 02:45:40;;;;;;;10.85;6.00;;;19.50;62.00;;;;;;5075324;28;20032;-71
2022/05/17 02:48:07;;;;;;;10.23;5.65;;;19.50;61.90;;;;;;5075604;28;20044;-75
2022/05/17 02:50:33;;;;;;;13.27;6.63;;;19.60;61.40;;;;;;5075188;28;20068;-70
2022/05/17 02:53:01;;;;;;;;;;;19.60;62.00;;;;;;5076162;28;20062;-74
2022/05/17 02:55:27;;;;;;;8.75;5.78;;;19.60;61.20;;;;;;5093151;28;19965;-71
2022/05/17 02:57:53;;;;;;;;;;;19.50;61.20;;;;;;5093162;28;20042;-71
2022/05/17 03:00:19;;;;;;;15.00;6.55;;;19.60;61.00;;;;;;5093102;28;19916;-75
2022/05/17 03:02:45;;;;;;;10.05;6.53;;;19.60;61.90;;;;;;5093593;28;20123;-74
2022/05/17 03:05:13;;;;;;;;;;;19.60;62.20;;;;;;5075406;28;20028;-71
2022/05/17 03:07:39;;;;;;;10.95;6.05;;;19.60;61.20;;;;;;5075270;28;19915;-74
2022/05/17 03:10:05;;;;;;;;;;;19.60;61.90;;;;;;5075555;28;20047;-74
2022/05/17 03:12:31;;;;;;;11.55;6.07;;;19.50;61.30;;;;;;5074295;28;20669;-75
2022/05/17 03:14:59;;;;;;;9.00;5.97;;;19.40;62.00;;;;;;5093315;28;20043;-71
2022/05/17 03:17:29;;;;;;;11.55;6.45;;;19.40;62.20;;;;;;5092874;28;20031;-73
2022/05/17 03:19:55;;;;;;;13.55;6.72;;;19.50;62.30;;;;;;5075003;28;20032;-71
2022/05/17 03:22:22;;;;;;;13.52;6.75;;;19.50;62.70;;;;;;5057898;28;20503;-73
2022/05/17 03:24:51;;;;;;;10.65;6.22;;;19.50;62.70;;;;;;5093029;28;20115;-77
2022/05/17 03:27:19;;;;;;;8.60;6.03;;;19.50;62.90;;;;;;5057641;28;20087;-74
2022/05/17 03:29:46;;;;;;;14.75;6.45;;;19.60;63.00;;;;;;5074605;28;20036;-77
2022/05/17 03:32:12;;;;;;;11.95;6.10;;;19.50;63.20;;;;;;5074504;28;20036;-74
2022/05/17 03:34:38;;;;;;;;;;;19.60;63.30;;;;;;5093417;28;20400;-73
2022/05/17 03:37:05;;;;;;;12.35;6.68;;;19.60;62.10;;;;;;5074536;28;19912;-74
2022/05/17 03:39:34;;;;;;;9.55;5.85;;;19.50;63.10;;;;;;5057971;28;20036;-75
2022/05/17 03:42:00;;;;;;;12.02;6.05;;;19.60;62.80;;;;;;5092795;28;20099;-72
2022/05/17 03:44:26;;;;;;;9.48;6.03;;;19.60;63.30;;;;;;5091924;28;20042;-77
2022/05/17 03:46:52;;;;;;;9.68;6.10;;;19.70;63.50;;;;;;5074422;28;20044;-77
2022/05/17 03:49:18;;;;;;;10.88;6.50;;;19.60;63.40;;;;;;5074786;28;20036;-76
2022/05/17 03:51:47;;;;;;;13.93;6.43;;;19.60;63.70;;;;;;5074334;28;20040;-73
2022/05/17 03:54:22;;;;;;;11.27;6.10;;;19.60;63.80;;;;;;5074760;28;20043;-73
2022/05/17 03:56:49;;;;;;;10.30;6.22;;;19.70;63.80;;;;;;5074352;28;20146;-73
2022/05/17 03:59:15;;;;;;;10.80;6.63;;;19.70;63.70;;;;;;5091716;28;20044;-73
2022/05/17 04:01:41;;;;;;;12.18;6.32;;;19.70;63.70;;;;;;5092138;28;20373;-73
2022/05/17 04:04:07;;;;;;;9.73;5.38;;;19.80;64.10;;;;;;5074470;28;20028;-73
2022/05/17 04:06:33;;;;;;;;;;;19.80;63.90;;;;;;5074816;28;20040;-76
2022/05/17 04:08:59;;;;;;;13.23;6.45;;;19.80;63.10;;;;;;5074268;28;20295;-76
2022/05/17 04:11:27;;;;;;;;;;;19.70;64.10;;;;;;5074593;28;20043;-76
2022/05/17 04:13:53;;;;;;;9.85;6.15;;;19.70;63.40;;;;;;5091743;28;19924;-73
2022/05/17 04:16:20;;;;;;;10.50;6.40;;;19.70;64.20;;;;;;5074017;28;20035;-76
2022/05/17 04:18:48;;;;;;;12.05;5.95;;;19.70;63.90;;;;;;5057495;28;20067;-76
2022/05/17 04:21:14;;;;;;;11.18;5.82;;;19.70;64.60;;;;;;5092012;28;20425;-75
2022/05/17 04:23:43;;;;;;;9.38;6.13;;;19.70;64.00;;;;;;5074365;28;20294;-73
2022/05/17 04:26:10;;;;;;;10.05;5.90;;;19.70;64.60;;;;;;5091828;28;20077;-76
2022/05/17 04:28:37;;;;;;;11.32;6.30;;;19.70;64.70;;;;;;5073287;28;20467;-73
2022/05/17 04:31:03;;;;;;;10.80;5.30;;;19.70;64.60;;;;;;5091928;28;20534;-72
2022/05/17 04:33:29;;;;;;;;;;;19.70;64.80;;;;;;5074725;28;20032;-73
2022/05/17 04:35:55;;;;;;;10.48;5.70;;;19.50;65.40;;;;;;5073667;28;20330;-73
2022/05/17 04:38:21;;;;;;;14.23;6.05;;;19.20;66.50;;;;;;5092034;28;20032;-77
2022/05/17 04:40:48;;;;;;;17.95;6.60;;;19.10;67.50;;;;;;5091949;28;20032;-73
2022/05/17 04:43:14;;;;;;;15.93;6.82;;;19.10;67.30;;;;;;5091829;28;20365;-73
2022/05/17 04:45:44;;;;;;;14.95;7.30;;;19.10;66.70;;;;;;5091658;28;20028;-76
2022/05/17 04:48:24;;;;;;;15.85;6.88;;;19.20;66.90;;;;;;5074412;28;20385;-76
2022/05/17 04:51:05;;;;;;;9.60;6.32;;;19.30;66.80;;;;;;5074624;28;20544;-77
2022/05/17 04:53:31;;;;;;;10.57;6.55;;;19.30;66.40;;;;;;5092027;28;20127;-72
2022/05/17 04:55:57;;;;;;;9.85;6.05;;;19.40;66.30;;;;;;5091671;28;20122;-72
2022/05/17 04:58:23;;;;;;;;;;;19.50;66.60;;;;;;5091625;28;20404;-78
2022/05/17 05:00:50;;;;;;;14.60;6.68;;;19.50;65.40;;;;;;5093139;28;20283;-73
2022/05/17 05:03:18;;;;;;;17.00;7.15;;;19.50;65.80;;;;;;5077822;28;20055;-74
2022/05/17 05:05:45;;;;;;;13.57;6.60;;;19.60;66.30;;;;;;5077229;28;20086;-74
2022/05/17 05:08:14;;;;;;;15.65;7.13;;;19.60;66.50;;;;;;5077705;28;20063;-78
2022/05/17 05:10:46;;;;;;;13.18;6.75;;;19.70;66.70;;;;;;5095205;28;20404;-74
2022/05/17 05:13:35;;;;;;;20.48;7.45;;;19.70;66.80;;;;;;5077052;28;20085;-79
2022/05/17 05:16:01;;;;;;;14.95;6.18;;;19.70;67.00;;;;;;5095081;28;20040;-74
2022/05/17 05:18:28;;;;;;;14.80;6.22;;;19.70;66.80;;;;;;5060533;28;20040;-74
2022/05/17 05:21:13;;;;;;;;;;;19.80;66.80;;;;;;5077514;28;20060;-74
2022/05/17 05:23:42;;;;;;;11.43;4.38;;;19.80;65.60;;;;;;5077334;28;19978;-79
2022/05/17 05:26:11;;;;;;;8.50;4.18;;;19.80;66.10;;;;;;5094680;28;20047;-73
2022/05/17 05:28:37;;;;;;;7.72;4.25;;;19.80;66.60;;;;;;5076305;28;20131;-73
2022/05/17 05:31:06;;;;;;;9.77;3.90;;;19.90;66.20;;;;;;5092773;28;20035;-73
2022/05/17 05:33:34;;;;;;;16.23;3.30;;;19.90;66.70;;;;;;5077323;28;20088;-73
2022/05/17 05:36:02;;;;;;;6.20;2.38;;;19.90;66.20;;;;;;5077061;28;20118;-78
2022/05/17 05:38:29;;;;;;;6.13;2.80;;;20.00;66.40;;;;;;5060039;28;20044;-73
2022/05/17 05:40:55;;;;;;;8.63;2.30;;;20.00;67.10;;;;;;5059928;28;20028;-79
2022/05/17 05:43:28;;;;;;;9.02;2.38;;;20.00;67.00;;;;;;5094907;28;20113;-73
2022/05/17 05:45:54;;;;;;;7.93;2.40;;;20.00;66.60;;;;;;5094192;28;20081;-79
2022/05/17 05:48:20;;;;;;;6.57;2.28;;;20.00;66.90;;;;;;5094930;28;20377;-80
2022/05/17 05:50:47;;;;;;;6.30;2.45;;;20.00;66.60;;;;;;5075864;28;20415;-79
2022/05/17 05:53:17;;;;;;;20.38;2.70;;;20.10;66.60;;;;;;5095221;28;20111;-79
2022/05/17 05:55:43;;;;;;;7.35;2.25;;;20.10;66.00;;;;;;5094377;28;20036;-79
2022/05/17 05:58:10;;;;;;;5.93;2.38;;;20.10;66.50;;;;;;5093963;28;20048;-74
2022/05/17 06:00:38;;;;;;;5.90;2.60;;;20.20;66.40;;;;;;5075502;28;20118;-79
2022/05/17 06:03:04;;;;;;;6.10;2.35;;;20.20;66.00;;;;;;5076727;28;20032;-73
2022/05/17 06:05:32;;;;;;;7.53;2.60;;;20.20;66.50;;;;;;5094087;28;20029;-74
2022/05/17 06:08:01;;;;;;;11.13;2.80;;;20.30;66.70;;;;;;5094987;28;20489;-75
2022/05/17 06:10:33;;;;;;;10.00;3.70;;;20.30;66.80;;;;;;5076105;28;20063;-79
2022/05/17 06:12:59;;;;;;;11.55;4.65;;;20.40;66.90;;;;;;5075584;28;20495;-73
2022/05/17 06:15:25;;;;;;;;;;;20.40;67.00;;;;;;5075584;28;20077;-79
2022/05/17 06:17:54;;;;;;;9.02;4.55;;;20.40;66.30;;;;;;5076360;28;19916;-73
2022/05/17 06:20:20;;;;;;;7.22;4.15;;;20.40;66.60;;;;;;5076136;28;20111;-80
2022/05/17 06:22:46;;;;;;;18.33;4.93;;;20.40;66.60;;;;;;5076184;28;20028;-79
2022/05/17 06:25:12;;;;;;;7.85;4.68;;;20.50;66.70;;;;;;5075476;28;20038;-79
2022/05/17 06:27:41;;;;;;;;;;;20.50;66.70;;;;;;5076614;28;20035;-79
2022/05/17 06:30:08;;;;;;;8.77;2.97;;;20.60;66.00;;;;;;5074761;28;20284;-80
2022/05/17 06:32:37;;;;;;;7.63;2.22;;;20.50;66.20;;;;;;5094202;28;20028;-79
2022/05/17 06:35:10;;;;;;;6.18;2.22;;;20.60;66.40;;;;;;5059544;28;20039;-73
2022/05/17 06:37:37;;;;;;;8.10;2.50;;;20.50;66.50;;;;;;5075795;28;20055;-81
2022/05/17 06:40:05;;;;;;;7.30;2.58;;;20.50;66.40;;;;;;5075711;28;20040;-73
2022/05/17 06:42:32;;;;;;;5.63;2.60;;;20.60;66.50;;;;;;5075733;28;20035;-72
2022/05/17 06:44:58;;;;;;;6.72;2.70;;;20.60;66.80;;;;;;5074839;28;20130;-73
2022/05/17 06:47:26;;;;;;;7.55;2.65;;;20.60;66.80;;;;;;5075382;28;20039;-72
2022/05/17 06:49:53;;;;;;;7.97;4.30;;;20.60;66.70;;;;;;5093752;28;20059;-72
2022/05/17 06:52:22;;;;;;;8.20;4.22;;;20.60;66.70;;;;;;5075285;28;20392;-80
2022/05/17 06:54:50;;;;;;;12.23;4.30;;;20.70;66.10;;;;;;5075476;28;20401;-80
2022/05/17 06:57:17;;;;;;;6.85;3.40;;;20.80;66.60;;;;;;5075073;28;20103;-73
2022/05/17 06:59:45;;;;;;;9.77;3.75;;;20.80;66.50;;;;;;5074556;28;20036;-80
2022/05/17 07:02:12;;;;;;;10.13;3.75;;;20.80;66.30;;;;;;5058253;28;20028;-79
2022/05/17 07:04:39;;;;;;;8.52;3.50;;;20.90;66.30;;;;;;5074584;28;20686;-73
2022/05/17 07:07:06;;;;;;;7.45;4.15;;;20.90;66.30;;;;;;5074918;28;20037;-79
2022/05/17 07:09:34;;;;;;;7.50;3.72;;;21.00;66.20;;;;;;5075193;28;20056;-79
2022/05/17 07:14:49;;;;;;;6.15;3.65;;;21.10;65.90;;;;;;5092547;28;20119;-76
2022/05/17 07:17:21;;;;;;;10.43;4.05;;;21.20;65.60;;;;;;5093098;28;20115;-78
2022/05/17 07:19:48;;;;;;;6.30;3.60;;;21.30;65.60;;;;;;5093032;28;20493;-78
2022/05/17 07:22:15;;;;;;;6.72;3.05;;;21.30;65.30;;;;;;5074793;28;20027;-74
2022/05/17 07:24:44;;;;;;;9.75;2.70;;;21.50;66.20;;;;;;5057942;28;20032;-72
2022/05/17 07:27:10;;;;;;;6.65;2.83;;;21.60;64.80;;;;;;5058420;28;20527;-79
2022/05/17 07:29:36;;;;;;;;;;;21.60;64.70;;;;;;5092692;28;20068;-72
2022/05/17 07:32:03;;;;;;;5.82;3.00;;;21.70;64.20;;;;;;5074527;28;19966;-73
2022/05/17 07:34:30;;;;;;;7.60;3.42;;;21.80;64.00;;;;;;5092846;28;20111;-78
2022/05/17 07:36:56;;;;;;;5.57;2.78;;;21.90;63.50;;;;;;5092801;28;20032;-79
2022/05/17 07:39:23;;;;;;;;;;;22.10;64.20;;;;;;5093323;28;20043;-73
2022/05/17 07:41:50;;;;;;;6.65;3.08;;;22.20;63.60;;;;;;5092579;28;20366;-78
2022/05/17 07:44:16;;;;;;;6.30;2.63;;;22.30;63.10;;;;;;5074774;28;20107;-73
2022/05/17 07:46:42;;;;;;;;;;;22.40;62.80;;;;;;5057367;28;20032;-72
2022/05/17 07:49:08;;;;;;;6.28;2.80;;;22.60;62.50;;;;;;5092858;28;20278;-72
2022/05/17 07:51:35;;;;;;;11.95;3.70;;;22.80;62.10;;;;;;5092482;28;20036;-78
2022/05/17 07:54:01;;;;;;;9.57;2.85;;;22.90;62.10;;;;;;5074760;28;20028;-79
2022/05/17 07:56:27;;;;;;;5.53;2.67;;;23.00;61.70;;;;;;5074078;28;20032;-79
2022/05/17 07:58:53;;;;;;;;;;;23.10;60.50;;;;;;5093001;28;20039;-77
2022/05/17 08:01:19;;;;;;;4.93;2.65;;;23.30;60.80;;;;;;5073164;28;19916;-79
2022/05/17 08:03:45;;;;;;;;;;;23.50;59.60;;;;;;5075198;28;20032;-72
2022/05/17 08:06:11;;;;;;;5.25;2.28;;;23.70;59.80;;;;;;5074160;28;19912;-73
2022/05/17 08:08:38;;;;;;;9.15;2.78;;;23.80;58.00;;;;;;5074396;28;20036;-78
2022/05/17 08:11:05;;;;;;;;;;;23.90;57.90;;;;;;5074698;28;20401;-73
2022/05/17 08:13:31;;;;;;;7.38;2.45;;;24.20;58.30;;;;;;5074715;28;20109;-73
2022/05/17 08:15:57;;;;;;;5.03;2.67;;;24.50;56.70;;;;;;5091061;28;20118;-73
2022/05/17 08:18:24;;;;;;;16.52;4.55;;;24.80;56.50;;;;;;5074308;28;20093;-72
2022/05/17 08:20:53;;;;;;;8.55;3.40;;;25.10;55.80;;;;;;5073933;28;20054;-78
2022/05/17 08:23:19;;;;;;;6.97;2.47;;;25.20;54.70;;;;;;5074796;28;20123;-73
2022/05/17 08:28:30;;;;;;;8.35;2.95;;;25.70;53.40;;;;;;5092333;28;20067;-72
2022/05/17 08:30:56;;;;;;;6.40;2.63;;;26.10;53.50;;;;;;5091146;28;20040;-72
2022/05/17 08:33:26;;;;;;;6.93;3.22;;;26.30;52.70;;;;;;5092312;28;20401;-78
2022/05/17 08:36:11;;;;;;;8.35;3.00;;;26.50;51.40;;;;;;5075934;28;20024;-72
2022/05/17 08:38:56;;;;;;;6.25;1.77;;;27.00;51.70;;;;;;5077873;28;20062;-77
2022/05/17 08:42:18;;;;;;;9.80;2.35;;;27.60;47.80;;;;;;5095817;28;20036;-73
2022/05/17 08:44:57;;;;;;;8.52;2.10;;;27.80;48.30;;;;;;5096271;28;20036;-73
2022/05/17 08:48:00;;;;;;;8.32;1.85;;;27.80;46.60;;;;;;5077384;28;20101;-72
2022/05/17 08:50:32;;;;;;;8.10;2.03;;;27.80;47.50;;;;;;5077625;28;20515;-73
2022/05/17 08:52:58;;;;;;;5.65;1.80;;;27.80;45.40;;;;;;5078030;28;20089;-74
2022/05/17 08:55:29;;;;;;;8.02;2.00;;;28.40;46.10;;;;;;5077364;28;20044;-73
2022/05/17 08:58:32;;;;;;;4.90;1.77;;;29.20;44.80;;;;;;5077693;28;20089;-77
2022/05/17 09:01:56;;;;;;;5.03;1.75;;;30.70;43.20;;;;;;5056218;28;20543;-78
2022/05/17 09:05:22;;;;;;;5.63;1.73;;;30.90;41.40;;;;;;5075447;28;20473;-79
2022/05/17 09:08:45;;;;;;;7.38;2.10;;;30.80;40.70;;;;;;5075748;28;20036;-77
2022/05/17 09:11:38;;;;;;;9.10;1.73;;;30.80;40.30;;;;;;5075064;28;20072;-78
2022/05/17 09:14:41;;;;;;;3.20;1.40;;;30.70;38.80;;;;;;5075337;28;20409;-74
2022/05/17 09:17:19;;;;;;;4.35;1.80;;;30.70;38.90;;;;;;5071873;28;20028;-78
2022/05/17 09:19:50;;;;;;;7.15;1.92;;;30.40;37.80;;;;;;5077509;28;20068;-71
2022/05/17 09:22:16;;;;;;;5.78;1.90;;;30.10;38.30;;;;;;5076908;28;20028;-73
2022/05/17 09:24:48;;;;;;;4.78;1.70;;;29.70;38.40;;;;;;5077195;28;20036;-79
2022/05/17 09:27:36;;;;;;;4.82;1.80;;;29.50;38.30;;;;;;5060281;28;20058;-78
2022/05/17 09:30:22;;;;;;;4.85;1.95;;;29.20;39.20;;;;;;5077208;28;20541;-74
2022/05/17 09:33:04;;;;;;;9.53;2.20;;;28.80;38.30;;;;;;5095384;28;20047;-73
2022/05/17 09:35:32;;;;;;;9.25;2.22;;;28.60;38.70;;;;;;5076711;28;20447;-79
2022/05/17 09:38:04;;;;;;;7.78;2.10;;;28.40;39.00;;;;;;5077459;28;20071;-73
2022/05/17 09:40:53;;;;;;;7.65;2.45;;;28.30;39.70;;;;;;5076489;28;20056;-73
2022/05/17 09:43:53;;;;;;;9.73;2.70;;;28.20;39.90;;;;;;5094877;28;20047;-74
2022/05/17 09:46:48;;;;;;;5.75;2.30;;;28.00;40.20;;;;;;5093730;28;20539;-74
2022/05/17 09:52:38;;;;;;;7.32;2.30;;;28.10;40.70;;;;;;5079692;28;20039;-79
2022/05/17 09:55:27;;;;;;;4.50;2.05;;;28.10;39.80;;;;;;5077048;28;20055;-79
2022/05/17 09:58:10;;;;;;;5.70;2.20;;;28.00;39.80;;;;;;5076776;28;20051;-78
2022/05/17 10:00:42;;;;;;;6.38;2.47;;;27.90;39.70;;;;;;5075649;28;20035;-74
2022/05/17 10:03:34;;;;;;;5.43;2.13;;;28.00;40.10;;;;;;5095083;28;20070;-74
2022/05/17 10:06:39;;;;;;;13.40;2.72;;;28.20;39.70;;;;;;5059549;28;20035;-74
2022/05/17 10:09:42;;;;;;;5.75;2.17;;;28.40;39.70;;;;;;5059898;28;20039;-79
2022/05/17 10:12:31;;;;;;;6.15;3.13;;;28.70;38.70;;;;;;5094316;28;20389;-74
2022/05/17 10:15:06;;;;;;;4.05;2.03;;;28.90;38.80;;;;;;5094453;28;20056;-79
2022/05/17 10:17:51;;;;;;;5.60;1.92;;;29.00;39.10;;;;;;5075498;28;20369;-75
2022/05/17 10:20:43;;;;;;;5.45;2.53;;;29.30;38.70;;;;;;5076013;28;20036;-79
2022/05/17 10:23:58;;;;;;;12.85;2.75;;;30.20;37.50;;;;;;5076327;28;20046;-78
2022/05/17 10:26:34;;;;;;;4.20;2.10;;;30.50;37.40;;;;;;5093550;28;20056;-78
2022/05/17 10:29:05;;;;;;;6.95;2.15;;;31.40;35.90;;;;;;5076583;28;20024;-78
2022/05/17 10:32:19;;;;;;;5.07;2.20;;;33.00;33.50;;;;;;5074681;28;20160;-80
2022/05/17 10:35:42;;;;;;;5.50;2.00;;;34.70;32.30;;;;;;5093946;28;20029;-74
2022/05/17 10:38:50;;;;;;;5.50;1.85;;;36.70;30.30;;;;;;5093745;28;20058;-75
2022/05/17 10:41:16;;;;;;;5.20;2.20;;;38.20;29.20;;;;;;5093604;28;20036;-80
2022/05/17 10:43:46;;;;;;;7.93;2.10;;;39.40;27.40;;;;;;5075799;28;20028;-73
2022/05/17 10:46:20;;;;;;;6.28;2.00;;;40.50;25.20;;;;;;5074654;28;20032;-77
2022/05/17 10:49:10;;;;;;;6.22;2.15;;;41.60;24.70;;;;;;5075696;28;20060;-74
2022/05/17 10:51:57;;;;;;;7.90;2.35;;;42.50;23.80;;;;;;5058297;28;20024;-79
2022/05/17 10:54:54;;;;;;;16.00;2.88;;;43.40;21.90;;;;;;5093592;28;20036;-77
2022/05/17 10:57:32;;;;;;;5.35;2.78;;;44.50;21.40;;;;;;5093393;28;20020;-77
2022/05/17 11:00:44;;;;;;;5.45;2.30;;;45.40;19.50;;;;;;5093322;28;20040;-73
2022/05/17 11:03:22;;;;;;;5.13;2.10;;;46.10;19.60;;;;;;5092945;28;20036;-77
2022/05/17 11:06:18;;;;;;;4.57;2.28;;;46.90;18.00;;;;;;5093061;28;20047;-76
2022/05/17 11:09:08;;;;;;;;;;;47.70;17.70;;;;;;5075924;28;20032;-74
2022/05/17 11:11:49;;;;;;;6.50;2.65;;;48.20;19.40;;;;;;5093097;28;19916;-76
2022/05/17 11:14:43;;;;;;;19.30;3.10;;;49.00;17.10;;;;;;5075191;28;20126;-74
2022/05/17 11:17:44;;;;;;;8.55;2.10;;;49.30;16.40;;;;;;5073899;28;20044;-76
2022/05/17 11:21:07;;;;;;;5.10;2.80;;;49.40;16.60;;;;;;5074978;28;20118;-73
2022/05/17 11:24:12;;;;;;;4.85;2.60;;;49.90;16.40;;;;;;5093170;28;20036;-76
2022/05/17 11:27:34;;;;;;;9.57;2.15;;;50.40;15.60;;;;;;5092722;28;20051;-73
2022/05/17 11:30:28;;;;;;;10.45;2.67;;;50.70;14.80;;;;;;5093037;28;20567;-73
2022/05/17 11:33:34;;;;;;;4.75;2.70;;;51.30;14.50;;;;;;5074010;28;20446;-73
2022/05/17 11:36:57;;;;;;;9.82;3.28;;;51.60;14.00;;;;;;5074655;28;20059;-73
2022/05/17 11:39:48;;;;;;;4.53;2.85;;;51.40;14.40;;;;;;5074916;28;20489;-73
2022/05/17 11:43:40;;;;;;;10.43;2.92;;;51.30;13.80;;;;;;5092818;28;20481;-73
2022/05/17 11:45:50;;;;;;;5.30;2.60;;;51.70;13.70;;;;;;5077615;28;20039;-76
2022/05/17 11:48:21;;;;;;;5.05;3.28;;;52.20;13.70;;;;;;5074483;28;20039;-76
2022/05/17 11:51:06;;;;;;;7.82;3.33;;;52.60;12.90;;;;;;5074335;28;20032;-76
2022/05/17 11:53:40;;;;;;;;;;;52.60;13.00;;;;;;5093224;28;20055;-73
2022/05/17 11:56:25;;;;;;;5.35;3.03;;;53.00;14.00;;;;;;5092470;28;19919;-76
2022/05/17 11:59:30;;;;;;;18.00;3.17;;;53.30;13.00;;;;;;5092672;28;20378;-73
2022/05/17 12:02:14;;;;;;;5.70;3.43;;;53.60;12.70;;;;;;5091647;28;20512;-76
2022/05/17 12:04:44;;;;;;;7.05;3.60;;;53.60;12.20;;;;;;5074599;28;20817;-74
2022/05/17 12:07:30;;;;;;;5.55;3.25;;;53.50;11.90;;;;;;5074021;28;20040;-75
2022/05/17 12:10:27;;;;;;;6.32;2.95;;;53.80;12.10;;;;;;5092345;28;20075;-75
2022/05/17 12:13:06;;;;;;;6.60;3.47;;;54.10;12.20;;;;;;5096722;28;20028;-73
2022/05/17 12:16:10;;;;;;;8.30;3.53;;;54.30;11.90;;;;;;5078213;28;20028;-73
2022/05/17 12:19:17;;;;;;;5.00;3.45;;;54.00;12.40;;;;;;5077675;28;20127;-73
2022/05/17 12:22:39;;;;;;;5.15;3.47;;;53.70;12.30;;;;;;5096367;28;20036;-73
2022/05/17 12:25:40;;;;;;;9.23;3.80;;;54.20;12.40;;;;;;5096415;28;20481;-73
2022/05/17 12:28:20;;;;;;;6.05;4.03;;;54.80;11.80;;;;;;5096923;28;20381;-74
2022/05/17 12:31:43;;;;;;;6.50;3.72;;;55.20;11.80;;;;;;5078036;28;20154;-76
2022/05/17 12:34:09;;;;;;;3.72;3.08;;;55.20;11.80;;;;;;5077324;28;20083;-76
2022/05/17 12:36:37;;;;;;;11.57;4.10;;;55.50;11.10;;;;;;5077929;28;20103;-76
2022/05/17 12:45:01;;;;;;;8.60;4.30;;;55.40;11.30;;;;;;5096299;28;20530;-76
2022/05/17 12:48:24;;;;;;;4.47;4.07;;;55.50;11.20;;;;;;5077121;28;20058;-76
2022/05/17 12:51:10;;;;;;;6.53;4.10;;;55.90;11.40;;;;;;5095741;28;20036;-76
2022/05/17 12:53:58;;;;;;;6.13;4.10;;;55.90;10.70;;;;;;5078018;28;20040;-76
2022/05/17 12:56:24;;;;;;;4.95;3.97;;;55.70;10.90;;;;;;5077832;28;20032;-74
2022/05/17 12:59:49;;;;;;;6.57;3.97;;;55.90;10.60;;;;;;5095910;28;20609;-75
2022/05/17 13:02:24;;;;;;;5.27;3.60;;;56.10;10.80;;;;;;5076549;28;20047;-73
2022/05/17 13:04:51;;;;;;;5.68;3.28;;;55.80;10.60;;;;;;5077813;28;20040;-75
2022/05/17 13:07:22;;;;;;;11.02;4.38;;;55.00;10.60;;;;;;5095694;28;20384;-73
2022/05/17 13:10:08;;;;;;;25.35;4.20;;;55.10;10.90;;;;;;5060917;28;20067;-76
2022/05/17 13:12:40;;;;;;;24.40;4.25;;;55.00;10.90;;;;;;5095986;28;20455;-75
2022/05/17 13:15:08;;;;;;;8.18;3.60;;;55.20;10.50;;;;;;5077667;28;20039;-73
2022/05/17 13:17:41;;;;;;;5.32;3.53;;;55.50;10.10;;;;;;5060085;28;20032;-73
2022/05/17 13:20:29;;;;;;;5.53;3.40;;;55.40;10.30;;;;;;5077334;28;20389;-73
2022/05/17 13:22:59;;;;;;;4.22;3.55;;;55.60;10.10;;;;;;5077139;28;20107;-72
2022/05/17 13:25:45;;;;;;;9.02;3.67;;;55.80;9.80;;;;;;5077204;28;20085;-73
2022/05/17 13:28:13;;;;;;;6.57;3.63;;;55.40;10.60;;;;;;5077503;28;20036;-73
2022/05/17 13:31:38;;;;;;;7.18;3.58;;;55.10;9.90;;;;;;5060132;28;20130;-75
2022/05/17 13:34:05;;;;;;;5.68;3.63;;;53.80;10.60;;;;;;5094759;28;20441;-73
2022/05/17 13:36:59;;;;;;;6.38;3.20;;;54.00;11.10;;;;;;5076917;28;20040;-74
2022/05/17 13:39:29;;;;;;;5.13;2.88;;;54.00;10.80;;;;;;5077124;28;20032;-73
2022/05/17 13:41:57;;;;;;;5.03;3.47;;;54.40;11.10;;;;;;5094973;28;20532;-75
2022/05/17 13:44:52;;;;;;;15.43;3.97;;;54.50;10.40;;;;;;5060217;28;20047;-73
2022/05/17 13:47:44;;;;;;;7.85;3.25;;;54.80;10.70;;;;;;5095022;28;20109;-73
2022/05/17 13:53:06;;;;;;;5.78;2.72;;;54.30;10.40;;;;;;5079612;28;20047;-75
2022/05/17 13:55:51;;;;;;;5.80;3.05;;;53.40;10.60;;;;;;5076369;28;20087;-75
2022/05/17 13:58:17;;;;;;;4.70;3.20;;;52.70;10.50;;;;;;5076846;28;20032;-73